Pagina principale
METAR-TAF:

METAR-TAF

Aeroporti :

Aeroporto Internazionale di Gedda-Re Abd al-Aziz

Gedda, Arabia Saudita

latitudine: 21-42N, longitudine: 039-11E, altezza: 15 m

Osservazione

Il bollettino è stato emesso 1 ora e 3 minuti fa, alle 19:00 UTC
Vento 4 kt da ovest/sud-ovest
Temperature 33°C
Umidità 44%
Pressione 1009 hPa
Visibilità 10 km o più
Poco nuvoloso ad un'altezza di 4000 ft

METAR: OEJN 241900Z 24004KT 9999 FEW040 33/19 Q1009 NOSIG

Ora: 23:03 (20:03 UTC)

Previsione

Il bollettino è stato emesso 3 ore e 3 minuti fa, alle 17:00 UTC
Previsione valida dal 24 alle 18 UTC al 25 alle 24 UTC
Vento 6 kt da nord
Visibilità: 7000 m
Poco nuvoloso ad un'altezza di 4000 ft
Nubi sparse ad un'altezza di 10000 ft
Probabilità 30% :
Temporaneamente
dal 24 alle 18 UTC al 25 alle 04 UTC
Poco nuvoloso ad un'altezza di 3500 ft, Cumulonembo.
Nubi sparse ad un'altezza di 4000 ft

TAF: OEJN 241700Z 2418/2524 35006KT 7000 FEW040 SCT100 PROB30 TEMPO 2418/2504 FEW035CB SCT040

Osservazioni e previsioni meteorologiche di più di 4000 aeroporti (messaggi METAR e TAF).

Le stazioni disponibili sono rappresentate dai dischi gialli e rossi sulla carta.

Puntare il mouse per vedere il nome della stazione.

Clicca sopra per visualizzare le osservazioni e previsioni meteorologiche.

Per cambiare la mappa : fare clic sui pulsanti verdi con una croce nera per ingrandire, il pulsante verde con un trattino per diminuire, o sulla freccia verde per le mappe adiacenti.


METAR-TAF: